logo dgac
Lunes 20 de Mayo del 2019
Buscar por aerodromo o helipuerto
Ingrese nombre de aeródromo, localidad o designador OACI:
METAR del 20-05-2019 a las 13:00 UTC
METAR SCAT 201300Z 34003KT 310V030 9999 BKN045 15/08 Q1021
Viento: dirección 340 grados, velocidad 3 nudos
Viento con dirección variable entre 310 y 030 grados
Visibilidad: 10 km o más
Nubes: Nublado a 4500 pies sobre el nivel del aeródromo
Temperatura: 15 °C
Rocío: 8 °C
Humedad_relativa: 63%
Presión: 1021 hPa
METAR del 20-05-2019 a las 13:00 UTC
METAR SCAT 201300Z 34003KT 310V030 9999 BKN045 15/08 Q1021
Viento: dirección 340 grados, velocidad 3 nudos
Viento con dirección variable entre 310 y 030 grados
Visibilidad: 10 km o más
Nubes: Nublado a 4500 pies sobre el nivel del aeródromo
Temperatura: 15 °C
Rocío: 8 °C
Humedad_relativa: 63%
Presión: 1021 hPa
METAR del 20-05-2019 a las 12:00 UTC
METAR SCAT 201200Z 04003KT 9999 BKN040 14/08 Q1020
Viento: dirección 040 grados, velocidad 3 nudos
Visibilidad: 10 km o más
Nubes: Nublado a 4000 pies sobre el nivel del aeródromo
Temperatura: 14 °C
Rocío: 8 °C
Humedad_relativa: 67%
Presión: 1020 hPa
METAR del 20-05-2019 a las 12:00 UTC
METAR SCAT 201200Z 04003KT 9999 BKN040 14/08 Q1020
Viento: dirección 040 grados, velocidad 3 nudos
Visibilidad: 10 km o más
Nubes: Nublado a 4000 pies sobre el nivel del aeródromo
Temperatura: 14 °C
Rocío: 8 °C
Humedad_relativa: 67%
Presión: 1020 hPa
METAR del 20-05-2019 a las 11:00 UTC
METAR SCAT 201100Z AUTO 03005KT 9999 // ///043 14/09 Q1020
Nan: AUTO
Viento: dirección 030 grados, velocidad 5 nudos
Visibilidad: 10 km o más
Nan: //
Nan: ///043
Temperatura: 14 °C
Rocío: 9 °C
Humedad_relativa: 72%
Presión: 1020 hPa
METAR del 20-05-2019 a las 10:00 UTC
METAR SCAT 201000Z AUTO 02006KT 9999 // ///040 13/09 Q1020
Nan: AUTO
Viento: dirección 020 grados, velocidad 6 nudos
Visibilidad: 10 km o más
Nan: //
Nan: ///040
Temperatura: 13 °C
Rocío: 9 °C
Humedad_relativa: 77%
Presión: 1020 hPa
METAR del 20-05-2019 a las 09:00 UTC
METAR SCAT 200900Z AUTO 36005KT 9999 // ///040 13/10 Q1019
Nan: AUTO
Viento: dirección 360 grados, velocidad 5 nudos
Visibilidad: 10 km o más
Nan: //
Nan: ///040
Temperatura: 13 °C
Rocío: 10 °C
Humedad_relativa: 82%
Presión: 1019 hPa
METAR del 20-05-2019 a las 08:00 UTC
METAR SCAT 200800Z AUTO 35006KT 9999 // ///036 13/10 Q1019
Nan: AUTO
Viento: dirección 350 grados, velocidad 6 nudos
Visibilidad: 10 km o más
Nan: //
Nan: ///036
Temperatura: 13 °C
Rocío: 10 °C
Humedad_relativa: 82%
Presión: 1019 hPa
METAR del 20-05-2019 a las 07:00 UTC
METAR SCAT 200700Z AUTO 02005KT 9999 // ///033 13/10 Q1019
Nan: AUTO
Viento: dirección 020 grados, velocidad 5 nudos
Visibilidad: 10 km o más
Nan: //
Nan: ///033
Temperatura: 13 °C
Rocío: 10 °C
Humedad_relativa: 82%
Presión: 1019 hPa
METAR del 20-05-2019 a las 06:00 UTC
METAR SCAT 200600Z AUTO 36003KT 9999 // ///030 13/10 Q1019
Nan: AUTO
Viento: dirección 360 grados, velocidad 3 nudos
Visibilidad: 10 km o más
Nan: //
Nan: ///030
Temperatura: 13 °C
Rocío: 10 °C
Humedad_relativa: 82%
Presión: 1019 hPa